sensor_id;sensor_type;location;lat;lon;timestamp;P1;durP1;ratioP1;P2;durP2;ratioP2
66020;SDS011;52789;59.980;30.346;2023-11-22T00:01:37;7.53;;;5.90;;
66020;SDS011;52789;59.980;30.346;2023-11-22T00:04:03;7.97;;;5.80;;
66020;SDS011;52789;59.980;30.346;2023-11-22T00:06:29;8.77;;;5.77;;
66020;SDS011;52789;59.980;30.346;2023-11-22T00:08:55;8.35;;;6.53;;
66020;SDS011;52789;59.980;30.346;2023-11-22T00:11:20;6.73;;;5.67;;
66020;SDS011;52789;59.980;30.346;2023-11-22T00:13:46;7.77;;;5.50;;
66020;SDS011;52789;59.980;30.346;2023-11-22T00:16:11;6.00;;;5.10;;
66020;SDS011;52789;59.980;30.346;2023-11-22T00:18:37;7.50;;;5.00;;
66020;SDS011;52789;59.980;30.346;2023-11-22T00:21:03;8.23;;;5.60;;
66020;SDS011;52789;59.980;30.346;2023-11-22T00:23:29;6.63;;;4.95;;
66020;SDS011;52789;59.980;30.346;2023-11-22T00:25:55;8.50;;;5.50;;
66020;SDS011;52789;59.980;30.346;2023-11-22T00:28:22;7.35;;;5.68;;
66020;SDS011;52789;59.980;30.346;2023-11-22T00:30:49;5.45;;;4.40;;
66020;SDS011;52789;59.980;30.346;2023-11-22T00:33:15;6.30;;;5.03;;
66020;SDS011;52789;59.980;30.346;2023-11-22T00:35:40;6.43;;;5.47;;
66020;SDS011;52789;59.980;30.346;2023-11-22T00:38:06;6.63;;;5.87;;
66020;SDS011;52789;59.980;30.346;2023-11-22T00:40:31;6.87;;;5.10;;
66020;SDS011;52789;59.980;30.346;2023-11-22T00:42:57;6.10;;;5.50;;
66020;SDS011;52789;59.980;30.346;2023-11-22T00:45:23;8.48;;;5.05;;
66020;SDS011;52789;59.980;30.346;2023-11-22T00:47:49;5.80;;;5.20;;
66020;SDS011;52789;59.980;30.346;2023-11-22T00:50:18;5.82;;;5.10;;
66020;SDS011;52789;59.980;30.346;2023-11-22T00:52:47;5.72;;;4.70;;
66020;SDS011;52789;59.980;30.346;2023-11-22T00:55:13;5.10;;;4.60;;
66020;SDS011;52789;59.980;30.346;2023-11-22T00:57:39;6.47;;;5.47;;
66020;SDS011;52789;59.980;30.346;2023-11-22T01:00:06;5.45;;;4.90;;
66020;SDS011;52789;59.980;30.346;2023-11-22T01:05:04;5.47;;;4.90;;
66020;SDS011;52789;59.980;30.346;2023-11-22T01:07:42;5.35;;;4.85;;
66020;SDS011;52789;59.980;30.346;2023-11-22T01:10:08;6.40;;;5.33;;
66020;SDS011;52789;59.980;30.346;2023-11-22T01:12:34;6.50;;;5.00;;
66020;SDS011;52789;59.980;30.346;2023-11-22T01:14:59;7.47;;;5.37;;
66020;SDS011;52789;59.980;30.346;2023-11-22T01:17:25;7.30;;;5.13;;
66020;SDS011;52789;59.980;30.346;2023-11-22T01:19:51;7.70;;;5.23;;
66020;SDS011;52789;59.980;30.346;2023-11-22T01:22:17;6.57;;;5.85;;
66020;SDS011;52789;59.980;30.346;2023-11-22T01:24:43;8.67;;;5.57;;
66020;SDS011;52789;59.980;30.346;2023-11-22T01:27:09;10.53;;;5.80;;
66020;SDS011;52789;59.980;30.346;2023-11-22T01:29:35;12.52;;;5.53;;
66020;SDS011;52789;59.980;30.346;2023-11-22T01:32:01;7.27;;;6.27;;
66020;SDS011;52789;59.980;30.346;2023-11-22T01:34:27;6.55;;;5.70;;
66020;SDS011;52789;59.980;30.346;2023-11-22T01:36:54;7.53;;;5.22;;
66020;SDS011;52789;59.980;30.346;2023-11-22T01:39:20;6.97;;;4.90;;
66020;SDS011;52789;59.980;30.346;2023-11-22T01:41:46;7.82;;;5.80;;
66020;SDS011;52789;59.980;30.346;2023-11-22T01:44:15;5.75;;;5.18;;
66020;SDS011;52789;59.980;30.346;2023-11-22T01:46:41;6.75;;;5.68;;
66020;SDS011;52789;59.980;30.346;2023-11-22T01:49:08;8.52;;;5.63;;
66020;SDS011;52789;59.980;30.346;2023-11-22T01:51:35;11.10;;;6.10;;
66020;SDS011;52789;59.980;30.346;2023-11-22T01:54:02;7.25;;;5.82;;
66020;SDS011;52789;59.980;30.346;2023-11-22T01:56:29;9.15;;;5.85;;
66020;SDS011;52789;59.980;30.346;2023-11-22T01:58:56;8.93;;;5.75;;
66020;SDS011;52789;59.980;30.346;2023-11-22T02:01:22;7.60;;;6.13;;
66020;SDS011;52789;59.980;30.346;2023-11-22T02:03:50;8.52;;;6.15;;
66020;SDS011;52789;59.980;30.346;2023-11-22T02:06:17;6.82;;;5.97;;
66020;SDS011;52789;59.980;30.346;2023-11-22T02:08:43;9.48;;;6.00;;
66020;SDS011;52789;59.980;30.346;2023-11-22T02:11:09;8.53;;;5.93;;
66020;SDS011;52789;59.980;30.346;2023-11-22T02:13:35;10.37;;;6.57;;
66020;SDS011;52789;59.980;30.346;2023-11-22T02:16:02;8.35;;;5.60;;
66020;SDS011;52789;59.980;30.346;2023-11-22T02:18:29;7.72;;;5.15;;
66020;SDS011;52789;59.980;30.346;2023-11-22T02:20:55;7.28;;;5.18;;
66020;SDS011;52789;59.980;30.346;2023-11-22T02:23:21;8.85;;;5.63;;
66020;SDS011;52789;59.980;30.346;2023-11-22T02:25:47;7.30;;;5.60;;
66020;SDS011;52789;59.980;30.346;2023-11-22T02:28:14;9.57;;;5.40;;
66020;SDS011;52789;59.980;30.346;2023-11-22T02:30:40;7.32;;;5.25;;
66020;SDS011;52789;59.980;30.346;2023-11-22T02:33:06;9.32;;;6.25;;
66020;SDS011;52789;59.980;30.346;2023-11-22T02:35:32;8.57;;;5.87;;
66020;SDS011;52789;59.980;30.346;2023-11-22T02:37:59;6.85;;;6.07;;
66020;SDS011;52789;59.980;30.346;2023-11-22T02:40:25;8.73;;;6.25;;
66020;SDS011;52789;59.980;30.346;2023-11-22T02:42:52;14.20;;;7.30;;
66020;SDS011;52789;59.980;30.346;2023-11-22T02:45:19;10.55;;;6.88;;
66020;SDS011;52789;59.980;30.346;2023-11-22T02:47:49;7.53;;;6.30;;
66020;SDS011;52789;59.980;30.346;2023-11-22T02:50:16;9.45;;;5.05;;
66020;SDS011;52789;59.980;30.346;2023-11-22T02:52:42;7.18;;;5.75;;
66020;SDS011;52789;59.980;30.346;2023-11-22T02:55:08;7.70;;;5.07;;
66020;SDS011;52789;59.980;30.346;2023-11-22T02:57:35;5.20;;;4.68;;
66020;SDS011;52789;59.980;30.346;2023-11-22T03:00:02;7.72;;;5.78;;
66020;SDS011;52789;59.980;30.346;2023-11-22T03:02:32;7.97;;;4.65;;
66020;SDS011;52789;59.980;30.346;2023-11-22T03:04:57;9.57;;;5.27;;
66020;SDS011;52789;59.980;30.346;2023-11-22T03:07:24;8.50;;;4.83;;
66020;SDS011;52789;59.980;30.346;2023-11-22T03:09:52;8.20;;;5.53;;
66020;SDS011;52789;59.980;30.346;2023-11-22T03:12:18;4.43;;;4.03;;
66020;SDS011;52789;59.980;30.346;2023-11-22T03:14:48;6.65;;;5.13;;
66020;SDS011;52789;59.980;30.346;2023-11-22T03:17:14;6.60;;;5.50;;
66020;SDS011;52789;59.980;30.346;2023-11-22T03:19:40;4.68;;;3.80;;
66020;SDS011;52789;59.980;30.346;2023-11-22T03:22:06;5.70;;;4.47;;
66020;SDS011;52789;59.980;30.346;2023-11-22T03:24:32;5.13;;;4.40;;
66020;SDS011;52789;59.980;30.346;2023-11-22T03:27:02;7.40;;;4.95;;
66020;SDS011;52789;59.980;30.346;2023-11-22T03:29:30;6.07;;;4.67;;
66020;SDS011;52789;59.980;30.346;2023-11-22T03:31:56;5.22;;;3.67;;
66020;SDS011;52789;59.980;30.346;2023-11-22T03:34:21;5.83;;;5.03;;
66020;SDS011;52789;59.980;30.346;2023-11-22T03:36:47;7.57;;;5.37;;
66020;SDS011;52789;59.980;30.346;2023-11-22T03:39:14;5.80;;;4.53;;
66020;SDS011;52789;59.980;30.346;2023-11-22T03:41:41;7.15;;;4.20;;
66020;SDS011;52789;59.980;30.346;2023-11-22T03:44:07;6.93;;;4.88;;
66020;SDS011;52789;59.980;30.346;2023-11-22T03:49:05;5.00;;;4.15;;
66020;SDS011;52789;59.980;30.346;2023-11-22T03:51:35;6.00;;;4.80;;
66020;SDS011;52789;59.980;30.346;2023-11-22T03:54:02;5.10;;;4.43;;
66020;SDS011;52789;59.980;30.346;2023-11-22T03:56:28;5.68;;;4.63;;
66020;SDS011;52789;59.980;30.346;2023-11-22T03:58:54;5.50;;;4.60;;
66020;SDS011;52789;59.980;30.346;2023-11-22T04:01:20;4.65;;;4.25;;
66020;SDS011;52789;59.980;30.346;2023-11-22T04:03:46;5.97;;;3.63;;
66020;SDS011;52789;59.980;30.346;2023-11-22T04:06:14;5.50;;;4.00;;
66020;SDS011;52789;59.980;30.346;2023-11-22T04:08:44;4.57;;;3.63;;
66020;SDS011;52789;59.980;30.346;2023-11-22T04:11:14;5.47;;;4.28;;
66020;SDS011;52789;59.980;30.346;2023-11-22T04:13:40;5.80;;;3.80;;
66020;SDS011;52789;59.980;30.346;2023-11-22T04:16:06;5.63;;;3.90;;
66020;SDS011;52789;59.980;30.346;2023-11-22T04:18:39;4.05;;;3.67;;
66020;SDS011;52789;59.980;30.346;2023-11-22T04:21:06;10.27;;;5.90;;
66020;SDS011;52789;59.980;30.346;2023-11-22T04:23:35;6.78;;;4.57;;
66020;SDS011;52789;59.980;30.346;2023-11-22T04:26:04;8.02;;;4.30;;
66020;SDS011;52789;59.980;30.346;2023-11-22T04:28:32;7.45;;;4.85;;
66020;SDS011;52789;59.980;30.346;2023-11-22T04:30:58;5.07;;;4.00;;
66020;SDS011;52789;59.980;30.346;2023-11-22T04:33:24;6.33;;;4.00;;
66020;SDS011;52789;59.980;30.346;2023-11-22T04:35:50;7.07;;;4.00;;
66020;SDS011;52789;59.980;30.346;2023-11-22T04:40:45;4.10;;;3.77;;
66020;SDS011;52789;59.980;30.346;2023-11-22T04:43:13;3.92;;;3.58;;
66020;SDS011;52789;59.980;30.346;2023-11-22T04:45:38;4.53;;;4.03;;
66020;SDS011;52789;59.980;30.346;2023-11-22T04:48:04;4.23;;;3.93;;
66020;SDS011;52789;59.980;30.346;2023-11-22T04:50:32;5.47;;;3.80;;
66020;SDS011;52789;59.980;30.346;2023-11-22T04:52:58;3.65;;;3.30;;
66020;SDS011;52789;59.980;30.346;2023-11-22T04:55:23;3.23;;;3.03;;
66020;SDS011;52789;59.980;30.346;2023-11-22T04:58:11;3.72;;;3.20;;
66020;SDS011;52789;59.980;30.346;2023-11-22T05:00:36;4.20;;;3.80;;
66020;SDS011;52789;59.980;30.346;2023-11-22T05:03:02;3.10;;;2.80;;
66020;SDS011;52789;59.980;30.346;2023-11-22T05:05:28;3.20;;;2.90;;
66020;SDS011;52789;59.980;30.346;2023-11-22T05:07:53;4.03;;;3.73;;
66020;SDS011;52789;59.980;30.346;2023-11-22T05:10:19;3.60;;;3.27;;
66020;SDS011;52789;59.980;30.346;2023-11-22T05:12:45;3.97;;;2.70;;
66020;SDS011;52789;59.980;30.346;2023-11-22T05:15:11;4.23;;;3.40;;
66020;SDS011;52789;59.980;30.346;2023-11-22T05:17:37;3.50;;;3.13;;
66020;SDS011;52789;59.980;30.346;2023-11-22T05:20:03;3.67;;;3.03;;
66020;SDS011;52789;59.980;30.346;2023-11-22T05:22:31;4.43;;;2.88;;
66020;SDS011;52789;59.980;30.346;2023-11-22T05:24:56;2.70;;;2.50;;
66020;SDS011;52789;59.980;30.346;2023-11-22T05:27:23;3.43;;;3.13;;
66020;SDS011;52789;59.980;30.346;2023-11-22T05:29:49;3.15;;;2.85;;
66020;SDS011;52789;59.980;30.346;2023-11-22T05:32:15;3.73;;;3.40;;
66020;SDS011;52789;59.980;30.346;2023-11-22T05:34:42;4.13;;;3.28;;
66020;SDS011;52789;59.980;30.346;2023-11-22T05:37:08;3.60;;;3.30;;
66020;SDS011;52789;59.980;30.346;2023-11-22T05:39:34;4.17;;;3.77;;
66020;SDS011;52789;59.980;30.346;2023-11-22T05:41:59;4.67;;;4.27;;
66020;SDS011;52789;59.980;30.346;2023-11-22T05:44:25;4.05;;;3.65;;
66020;SDS011;52789;59.980;30.346;2023-11-22T05:46:51;5.97;;;5.37;;
66020;SDS011;52789;59.980;30.346;2023-11-22T05:49:17;4.75;;;3.78;;
66020;SDS011;52789;59.980;30.346;2023-11-22T05:51:43;4.63;;;4.17;;
66020;SDS011;52789;59.980;30.346;2023-11-22T05:54:08;5.03;;;3.83;;
66020;SDS011;52789;59.980;30.346;2023-11-22T05:56:37;5.00;;;3.30;;
66020;SDS011;52789;59.980;30.346;2023-11-22T05:59:03;5.57;;;3.50;;
66020;SDS011;52789;59.980;30.346;2023-11-22T06:01:29;4.00;;;3.55;;
66020;SDS011;52789;59.980;30.346;2023-11-22T06:03:55;5.63;;;4.22;;
66020;SDS011;52789;59.980;30.346;2023-11-22T06:06:21;3.83;;;3.43;;
66020;SDS011;52789;59.980;30.346;2023-11-22T06:08:47;7.25;;;4.85;;
66020;SDS011;52789;59.980;30.346;2023-11-22T06:11:14;4.65;;;3.50;;
66020;SDS011;52789;59.980;30.346;2023-11-22T06:13:43;5.93;;;4.53;;
66020;SDS011;52789;59.980;30.346;2023-11-22T06:16:12;6.07;;;4.03;;
66020;SDS011;52789;59.980;30.346;2023-11-22T06:18:38;5.47;;;3.30;;
66020;SDS011;52789;59.980;30.346;2023-11-22T06:21:07;6.50;;;3.65;;
66020;SDS011;52789;59.980;30.346;2023-11-22T06:23:33;4.40;;;3.78;;
66020;SDS011;52789;59.980;30.346;2023-11-22T06:25:59;9.33;;;3.70;;
66020;SDS011;52789;59.980;30.346;2023-11-22T06:28:25;3.83;;;3.40;;
66020;SDS011;52789;59.980;30.346;2023-11-22T06:30:50;8.93;;;5.07;;
66020;SDS011;52789;59.980;30.346;2023-11-22T06:33:16;4.73;;;3.83;;
66020;SDS011;52789;59.980;30.346;2023-11-22T06:35:42;4.47;;;3.67;;
66020;SDS011;52789;59.980;30.346;2023-11-22T06:38:08;6.17;;;4.77;;
66020;SDS011;52789;59.980;30.346;2023-11-22T06:40:34;4.93;;;4.45;;
66020;SDS011;52789;59.980;30.346;2023-11-22T06:43:00;5.83;;;3.90;;
66020;SDS011;52789;59.980;30.346;2023-11-22T06:45:25;4.60;;;4.20;;
66020;SDS011;52789;59.980;30.346;2023-11-22T06:47:51;6.17;;;4.63;;
66020;SDS011;52789;59.980;30.346;2023-11-22T06:50:18;4.97;;;4.00;;
66020;SDS011;52789;59.980;30.346;2023-11-22T06:52:43;8.63;;;5.03;;
66020;SDS011;52789;59.980;30.346;2023-11-22T06:55:10;4.32;;;3.53;;
66020;SDS011;52789;59.980;30.346;2023-11-22T06:57:36;4.77;;;4.30;;
66020;SDS011;52789;59.980;30.346;2023-11-22T07:00:03;3.42;;;3.00;;
66020;SDS011;52789;59.980;30.346;2023-11-22T07:02:32;6.20;;;3.75;;
66020;SDS011;52789;59.980;30.346;2023-11-22T07:04:57;6.60;;;3.40;;
66020;SDS011;52789;59.980;30.346;2023-11-22T07:07:26;3.75;;;3.45;;
66020;SDS011;52789;59.980;30.346;2023-11-22T07:09:52;6.72;;;3.83;;
66020;SDS011;52789;59.980;30.346;2023-11-22T07:12:18;5.33;;;4.30;;
66020;SDS011;52789;59.980;30.346;2023-11-22T07:14:44;5.32;;;3.25;;
66020;SDS011;52789;59.980;30.346;2023-11-22T07:17:10;4.03;;;3.10;;
66020;SDS011;52789;59.980;30.346;2023-11-22T07:19:36;9.83;;;3.83;;
66020;SDS011;52789;59.980;30.346;2023-11-22T07:22:04;5.03;;;3.28;;
66020;SDS011;52789;59.980;30.346;2023-11-22T07:24:45;4.55;;;3.03;;
66020;SDS011;52789;59.980;30.346;2023-11-22T07:27:13;3.88;;;3.17;;
66020;SDS011;52789;59.980;30.346;2023-11-22T07:29:40;6.28;;;4.30;;
66020;SDS011;52789;59.980;30.346;2023-11-22T07:32:07;8.30;;;3.35;;
66020;SDS011;52789;59.980;30.346;2023-11-22T07:37:01;4.87;;;3.53;;
66020;SDS011;52789;59.980;30.346;2023-11-22T07:39:28;3.78;;;2.95;;
66020;SDS011;52789;59.980;30.346;2023-11-22T07:41:54;3.85;;;3.30;;
66020;SDS011;52789;59.980;30.346;2023-11-22T07:44:21;4.68;;;3.28;;
66020;SDS011;52789;59.980;30.346;2023-11-22T07:46:47;4.50;;;2.92;;
66020;SDS011;52789;59.980;30.346;2023-11-22T07:49:12;3.67;;;3.33;;
66020;SDS011;52789;59.980;30.346;2023-11-22T07:51:41;3.60;;;3.30;;
66020;SDS011;52789;59.980;30.346;2023-11-22T07:54:07;4.23;;;3.20;;
66020;SDS011;52789;59.980;30.346;2023-11-22T07:56:33;5.55;;;3.30;;
66020;SDS011;52789;59.980;30.346;2023-11-22T07:58:59;3.67;;;3.33;;
66020;SDS011;52789;59.980;30.346;2023-11-22T08:01:25;3.80;;;3.13;;
66020;SDS011;52789;59.980;30.346;2023-11-22T08:03:51;9.47;;;6.03;;
66020;SDS011;52789;59.980;30.346;2023-11-22T08:06:17;8.65;;;6.40;;
66020;SDS011;52789;59.980;30.346;2023-11-22T08:08:43;5.17;;;4.00;;
66020;SDS011;52789;59.980;30.346;2023-11-22T08:11:11;3.78;;;3.42;;
66020;SDS011;52789;59.980;30.346;2023-11-22T08:13:40;4.05;;;3.65;;
66020;SDS011;52789;59.980;30.346;2023-11-22T08:16:08;4.18;;;3.20;;
66020;SDS011;52789;59.980;30.346;2023-11-22T08:18:34;4.78;;;3.40;;
66020;SDS011;52789;59.980;30.346;2023-11-22T08:21:00;7.17;;;4.47;;
66020;SDS011;52789;59.980;30.346;2023-11-22T08:23:26;6.03;;;3.40;;
66020;SDS011;52789;59.980;30.346;2023-11-22T08:25:56;5.28;;;3.47;;
66020;SDS011;52789;59.980;30.346;2023-11-22T08:28:22;6.82;;;3.42;;
66020;SDS011;52789;59.980;30.346;2023-11-22T08:30:48;4.25;;;3.33;;
66020;SDS011;52789;59.980;30.346;2023-11-22T08:33:14;6.00;;;3.30;;
66020;SDS011;52789;59.980;30.346;2023-11-22T08:35:39;3.83;;;3.50;;
66020;SDS011;52789;59.980;30.346;2023-11-22T08:38:06;3.67;;;3.30;;
66020;SDS011;52789;59.980;30.346;2023-11-22T08:40:34;3.60;;;3.30;;
66020;SDS011;52789;59.980;30.346;2023-11-22T08:43:02;4.60;;;3.38;;
66020;SDS011;52789;59.980;30.346;2023-11-22T08:45:29;3.70;;;3.40;;
66020;SDS011;52789;59.980;30.346;2023-11-22T08:47:57;4.32;;;3.80;;
66020;SDS011;52789;59.980;30.346;2023-11-22T08:50:24;3.85;;;3.42;;
66020;SDS011;52789;59.980;30.346;2023-11-22T08:52:49;4.37;;;3.47;;
66020;SDS011;52789;59.980;30.346;2023-11-22T08:55:21;4.80;;;4.40;;
66020;SDS011;52789;59.980;30.346;2023-11-22T08:57:47;3.65;;;3.22;;
66020;SDS011;52789;59.980;30.346;2023-11-22T09:00:16;5.22;;;3.40;;
66020;SDS011;52789;59.980;30.346;2023-11-22T09:02:48;4.13;;;3.83;;
66020;SDS011;52789;59.980;30.346;2023-11-22T09:05:14;4.75;;;3.85;;
66020;SDS011;52789;59.980;30.346;2023-11-22T09:07:42;5.95;;;2.95;;
66020;SDS011;52789;59.980;30.346;2023-11-22T09:10:10;3.25;;;2.97;;
66020;SDS011;52789;59.980;30.346;2023-11-22T09:12:39;4.40;;;3.22;;
66020;SDS011;52789;59.980;30.346;2023-11-22T09:15:08;3.63;;;3.33;;
66020;SDS011;52789;59.980;30.346;2023-11-22T09:17:39;3.80;;;3.40;;
66020;SDS011;52789;59.980;30.346;2023-11-22T09:20:14;3.70;;;3.38;;
66020;SDS011;52789;59.980;30.346;2023-11-22T09:22:41;6.07;;;3.95;;
66020;SDS011;52789;59.980;30.346;2023-11-22T09:25:11;5.63;;;3.95;;
66020;SDS011;52789;59.980;30.346;2023-11-22T09:27:37;4.75;;;4.30;;
66020;SDS011;52789;59.980;30.346;2023-11-22T09:30:04;3.40;;;3.10;;
66020;SDS011;52789;59.980;30.346;2023-11-22T09:32:30;4.30;;;3.40;;
66020;SDS011;52789;59.980;30.346;2023-11-22T09:34:56;4.20;;;3.27;;
66020;SDS011;52789;59.980;30.346;2023-11-22T09:37:24;5.80;;;3.72;;
66020;SDS011;52789;59.980;30.346;2023-11-22T09:39:50;4.50;;;3.53;;
66020;SDS011;52789;59.980;30.346;2023-11-22T09:42:16;4.40;;;3.65;;
66020;SDS011;52789;59.980;30.346;2023-11-22T09:44:42;4.80;;;4.30;;
66020;SDS011;52789;59.980;30.346;2023-11-22T09:47:08;4.32;;;3.10;;
66020;SDS011;52789;59.980;30.346;2023-11-22T09:49:35;4.13;;;3.70;;
66020;SDS011;52789;59.980;30.346;2023-11-22T09:52:05;3.28;;;2.92;;
66020;SDS011;52789;59.980;30.346;2023-11-22T09:54:37;4.88;;;4.18;;
66020;SDS011;52789;59.980;30.346;2023-11-22T09:57:05;4.28;;;3.83;;
66020;SDS011;52789;59.980;30.346;2023-11-22T09:59:36;3.10;;;2.90;;
66020;SDS011;52789;59.980;30.346;2023-11-22T10:02:05;6.65;;;4.30;;
66020;SDS011;52789;59.980;30.346;2023-11-22T10:04:32;7.93;;;3.28;;
66020;SDS011;52789;59.980;30.346;2023-11-22T10:06:57;3.63;;;3.33;;
66020;SDS011;52789;59.980;30.346;2023-11-22T10:09:26;3.13;;;2.83;;
66020;SDS011;52789;59.980;30.346;2023-11-22T10:11:58;4.90;;;3.28;;
66020;SDS011;52789;59.980;30.346;2023-11-22T10:14:27;4.82;;;3.47;;
66020;SDS011;52789;59.980;30.346;2023-11-22T10:16:59;3.50;;;3.20;;
66020;SDS011;52789;59.980;30.346;2023-11-22T10:19:26;3.15;;;2.88;;
66020;SDS011;52789;59.980;30.346;2023-11-22T10:22:06;3.28;;;2.97;;
66020;SDS011;52789;59.980;30.346;2023-11-22T10:24:33;5.15;;;2.60;;
66020;SDS011;52789;59.980;30.346;2023-11-22T10:26:59;6.35;;;2.95;;
66020;SDS011;52789;59.980;30.346;2023-11-22T10:29:28;3.25;;;2.80;;
66020;SDS011;52789;59.980;30.346;2023-11-22T10:31:54;3.47;;;3.15;;
66020;SDS011;52789;59.980;30.346;2023-11-22T10:34:23;4.93;;;3.30;;
66020;SDS011;52789;59.980;30.346;2023-11-22T10:36:50;2.97;;;2.63;;
66020;SDS011;52789;59.980;30.346;2023-11-22T10:39:19;6.67;;;4.27;;
66020;SDS011;52789;59.980;30.346;2023-11-22T10:41:45;3.67;;;3.38;;
66020;SDS011;52789;59.980;30.346;2023-11-22T10:44:11;3.20;;;2.90;;
66020;SDS011;52789;59.980;30.346;2023-11-22T10:46:37;2.87;;;2.67;;
66020;SDS011;52789;59.980;30.346;2023-11-22T10:49:05;4.78;;;2.40;;
66020;SDS011;52789;59.980;30.346;2023-11-22T10:51:31;2.90;;;2.70;;
66020;SDS011;52789;59.980;30.346;2023-11-22T10:53:59;2.80;;;2.60;;
66020;SDS011;52789;59.980;30.346;2023-11-22T10:56:28;6.50;;;3.05;;
66020;SDS011;52789;59.980;30.346;2023-11-22T10:59:02;7.20;;;2.92;;
66020;SDS011;52789;59.980;30.346;2023-11-22T11:01:34;3.83;;;3.15;;
66020;SDS011;52789;59.980;30.346;2023-11-22T11:04:02;2.67;;;2.47;;
66020;SDS011;52789;59.980;30.346;2023-11-22T11:06:33;4.75;;;3.38;;
66020;SDS011;52789;59.980;30.346;2023-11-22T11:09:00;3.35;;;2.72;;
66020;SDS011;52789;59.980;30.346;2023-11-22T11:11:32;3.63;;;2.97;;
66020;SDS011;52789;59.980;30.346;2023-11-22T11:13:59;5.65;;;4.18;;
66020;SDS011;52789;59.980;30.346;2023-11-22T11:16:27;2.70;;;2.50;;
66020;SDS011;52789;59.980;30.346;2023-11-22T11:18:53;2.50;;;2.30;;
66020;SDS011;52789;59.980;30.346;2023-11-22T11:21:20;3.42;;;2.40;;
66020;SDS011;52789;59.980;30.346;2023-11-22T11:23:46;3.03;;;2.55;;
66020;SDS011;52789;59.980;30.346;2023-11-22T11:26:15;2.63;;;2.43;;
66020;SDS011;52789;59.980;30.346;2023-11-22T11:28:43;5.13;;;3.08;;
66020;SDS011;52789;59.980;30.346;2023-11-22T11:31:14;4.90;;;2.90;;
66020;SDS011;52789;59.980;30.346;2023-11-22T11:36:24;3.10;;;2.90;;
66020;SDS011;52789;59.980;30.346;2023-11-22T11:38:53;2.78;;;2.53;;
66020;SDS011;52789;59.980;30.346;2023-11-22T11:41:25;3.30;;;3.00;;
66020;SDS011;52789;59.980;30.346;2023-11-22T11:43:53;5.30;;;3.78;;
66020;SDS011;52789;59.980;30.346;2023-11-22T11:46:19;5.82;;;2.80;;
66020;SDS011;52789;59.980;30.346;2023-11-22T11:48:48;3.30;;;2.63;;
66020;SDS011;52789;59.980;30.346;2023-11-22T11:51:16;3.20;;;2.90;;
66020;SDS011;52789;59.980;30.346;2023-11-22T11:53:48;3.10;;;2.75;;
66020;SDS011;52789;59.980;30.346;2023-11-22T11:56:15;4.00;;;2.77;;
66020;SDS011;52789;59.980;30.346;2023-11-22T11:58:42;5.00;;;3.47;;
66020;SDS011;52789;59.980;30.346;2023-11-22T12:01:18;3.60;;;3.30;;
66020;SDS011;52789;59.980;30.346;2023-11-22T12:03:47;3.40;;;3.10;;
66020;SDS011;52789;59.980;30.346;2023-11-22T12:06:16;3.75;;;3.30;;
66020;SDS011;52789;59.980;30.346;2023-11-22T12:08:43;8.75;;;3.50;;
66020;SDS011;52789;59.980;30.346;2023-11-22T12:11:09;3.85;;;3.00;;
66020;SDS011;52789;59.980;30.346;2023-11-22T12:13:36;6.70;;;3.53;;
66020;SDS011;52789;59.980;30.346;2023-11-22T12:16:13;3.97;;;3.47;;
66020;SDS011;52789;59.980;30.346;2023-11-22T12:18:49;5.03;;;2.97;;
66020;SDS011;52789;59.980;30.346;2023-11-22T12:21:16;5.05;;;3.33;;
66020;SDS011;52789;59.980;30.346;2023-11-22T12:23:43;5.93;;;3.22;;
66020;SDS011;52789;59.980;30.346;2023-11-22T12:26:11;4.18;;;3.78;;
66020;SDS011;52789;59.980;30.346;2023-11-22T12:28:41;4.05;;;3.45;;
66020;SDS011;52789;59.980;30.346;2023-11-22T12:31:14;4.70;;;3.97;;
66020;SDS011;52789;59.980;30.346;2023-11-22T12:33:40;5.05;;;3.60;;
66020;SDS011;52789;59.980;30.346;2023-11-22T12:36:08;3.45;;;3.15;;
66020;SDS011;52789;59.980;30.346;2023-11-22T12:38:35;3.58;;;3.20;;
66020;SDS011;52789;59.980;30.346;2023-11-22T12:41:02;5.80;;;3.25;;
66020;SDS011;52789;59.980;30.346;2023-11-22T12:43:28;3.60;;;3.30;;
66020;SDS011;52789;59.980;30.346;2023-11-22T12:46:03;3.63;;;3.33;;
66020;SDS011;52789;59.980;30.346;2023-11-22T12:48:35;4.00;;;3.65;;
66020;SDS011;52789;59.980;30.346;2023-11-22T12:51:01;3.85;;;3.45;;
66020;SDS011;52789;59.980;30.346;2023-11-22T12:53:27;6.83;;;3.63;;
66020;SDS011;52789;59.980;30.346;2023-11-22T12:55:56;3.78;;;3.00;;
66020;SDS011;52789;59.980;30.346;2023-11-22T12:58:23;6.30;;;3.65;;
66020;SDS011;52789;59.980;30.346;2023-11-22T13:00:51;8.32;;;4.22;;
66020;SDS011;52789;59.980;30.346;2023-11-22T13:03:23;4.85;;;4.13;;
66020;SDS011;52789;59.980;30.346;2023-11-22T13:05:50;8.63;;;3.40;;
66020;SDS011;52789;59.980;30.346;2023-11-22T13:08:17;4.30;;;3.58;;
66020;SDS011;52789;59.980;30.346;2023-11-22T13:10:43;3.80;;;3.40;;
66020;SDS011;52789;59.980;30.346;2023-11-22T13:13:40;7.85;;;4.57;;
66020;SDS011;52789;59.980;30.346;2023-11-22T13:16:06;4.40;;;3.50;;
66020;SDS011;52789;59.980;30.346;2023-11-22T13:18:31;7.37;;;3.27;;
66020;SDS011;52789;59.980;30.346;2023-11-22T13:20:57;3.83;;;3.20;;
66020;SDS011;52789;59.980;30.346;2023-11-22T13:23:23;3.97;;;3.60;;
66020;SDS011;52789;59.980;30.346;2023-11-22T13:25:48;3.53;;;3.23;;
66020;SDS011;52789;59.980;30.346;2023-11-22T13:28:14;3.50;;;3.20;;
66020;SDS011;52789;59.980;30.346;2023-11-22T13:30:39;3.73;;;3.43;;
66020;SDS011;52789;59.980;30.346;2023-11-22T13:33:05;4.33;;;3.50;;
66020;SDS011;52789;59.980;30.346;2023-11-22T13:35:31;3.40;;;3.10;;
66020;SDS011;52789;59.980;30.346;2023-11-22T13:38:00;3.42;;;3.13;;
66020;SDS011;52789;59.980;30.346;2023-11-22T13:40:28;8.25;;;3.67;;
66020;SDS011;52789;59.980;30.346;2023-11-22T13:45:23;6.38;;;3.55;;
66020;SDS011;52789;59.980;30.346;2023-11-22T13:47:49;3.90;;;3.35;;
66020;SDS011;52789;59.980;30.346;2023-11-22T13:50:19;4.15;;;3.72;;
66020;SDS011;52789;59.980;30.346;2023-11-22T13:52:51;4.25;;;3.85;;
66020;SDS011;52789;59.980;30.346;2023-11-22T13:55:17;4.88;;;3.30;;
66020;SDS011;52789;59.980;30.346;2023-11-22T13:57:48;4.35;;;3.65;;
66020;SDS011;52789;59.980;30.346;2023-11-22T14:00:18;3.95;;;2.90;;
66020;SDS011;52789;59.980;30.346;2023-11-22T14:02:49;3.90;;;3.00;;
66020;SDS011;52789;59.980;30.346;2023-11-22T14:05:17;3.95;;;3.42;;
66020;SDS011;52789;59.980;30.346;2023-11-22T14:07:43;3.65;;;3.20;;
66020;SDS011;52789;59.980;30.346;2023-11-22T14:12:41;3.78;;;3.03;;
66020;SDS011;52789;59.980;30.346;2023-11-22T14:15:08;7.45;;;3.95;;
66020;SDS011;52789;59.980;30.346;2023-11-22T14:17:35;3.50;;;3.20;;
66020;SDS011;52789;59.980;30.346;2023-11-22T14:20:00;25.70;;;4.70;;
66020;SDS011;52789;59.980;30.346;2023-11-22T14:22:26;4.97;;;3.37;;
66020;SDS011;52789;59.980;30.346;2023-11-22T14:24:52;4.78;;;4.00;;
66020;SDS011;52789;59.980;30.346;2023-11-22T14:27:19;5.53;;;4.10;;
66020;SDS011;52789;59.980;30.346;2023-11-22T14:29:45;4.30;;;3.90;;
66020;SDS011;52789;59.980;30.346;2023-11-22T14:32:14;3.85;;;3.50;;
66020;SDS011;52789;59.980;30.346;2023-11-22T14:34:40;5.57;;;5.07;;
66020;SDS011;52789;59.980;30.346;2023-11-22T14:37:09;8.02;;;5.15;;
66020;SDS011;52789;59.980;30.346;2023-11-22T14:39:35;7.75;;;5.13;;
66020;SDS011;52789;59.980;30.346;2023-11-22T14:42:01;5.10;;;4.60;;
66020;SDS011;52789;59.980;30.346;2023-11-22T14:44:27;6.68;;;3.85;;
66020;SDS011;52789;59.980;30.346;2023-11-22T14:46:52;4.50;;;4.10;;
66020;SDS011;52789;59.980;30.346;2023-11-22T14:49:18;6.22;;;4.80;;
66020;SDS011;52789;59.980;30.346;2023-11-22T14:51:46;7.70;;;5.72;;